EDT,Max TemperatureF,Mean TemperatureF,Min TemperatureF,Max Dew PointF,MeanDew PointF,Min DewpointF,Max Humidity, Mean Humidity, Min Humidity, Max Sea Level PressureIn, Mean Sea Level PressureIn, Min Sea Level PressureIn, Max VisibilityMiles, Mean VisibilityMiles, Min VisibilityMiles, Max Wind SpeedMPH, Mean Wind SpeedMPH, Max Gust SpeedMPH,PrecipitationIn, CloudCover, Events, WindDirDegrees
2012-9-1,79,68,57,58,53,48,87,58,34,30.21,30.16,30.11,10,10,10,12,4,20,0.00,0,,40
2012-9-2,78,67,56,60,57,54,92,69,46,30.14,30.08,30.00,10,10,0,14,6,23,0.00,0,Fog,82
2012-9-3,82,73,64,65,60,54,91,69,43,30.00,29.95,29.88,10,10,3,13,7,20,0.00,3,Rain,178
2012-9-4,77,70,63,68,64,61,93,85,69,29.93,29.90,29.84,10,7,0,9,2,,0.00,4,Fog,13
2012-9-5,77,67,57,68,62,54,93,79,55,29.87,29.79,29.74,10,8,0,18,5,26,0.00,2,Fog,224
2012-9-6,76,66,55,60,55,49,93,69,39,29.91,29.87,29.82,10,10,2,14,4,17,0.00,0,,234
2012-9-7,68,63,58,61,56,52,90,82,71,29.91,29.86,29.79,10,10,7,10,4,16,0.00,7,Rain,292
2012-9-8,66,62,57,52,48,42,79,62,45,29.83,29.76,29.72,10,10,10,15,8,24,0.00,3,Rain,318
2012-9-9,67,58,50,47,44,41,76,55,39,30.13,30.00,29.84,10,10,10,9,5,16,0.00,1,,335
2012-9-10,72,57,42,55,49,40,93,70,49,30.18,30.12,30.04,10,10,10,15,4,20,0.00,0,,205
2012-9-11,77,70,64,62,58,54,86,64,47,30.03,30.00,29.95,10,10,10,23,14,37,0.00,0,,201
2012-9-12,77,68,60,64,57,36,84,62,29,30.18,30.04,29.97,10,10,10,20,15,31,0.00,2,,223
2012-9-13,63,56,50,54,49,44,91,72,55,30.26,30.23,30.16,10,10,10,10,4,16,0.00,6,Rain,283
2012-9-14,66,55,44,52,47,42,92,71,43,30.30,30.26,30.23,10,10,10,14,4,24,0.00,2,Rain,309
2012-9-15,63,52,42,50,45,40,93,71,47,30.33,30.25,30.09,10,9,1,10,4,,0.00,1,,76
2012-9-16,73,62,52,59,54,48,90,66,49,30.08,29.96,29.89,10,10,10,20,9,29,0.00,0,,205
2012-9-17,67,59,51,59,54,47,87,77,62,29.88,29.80,29.75,10,10,7,14,10,23,0.00,6,Rain,276
2012-9-18,56,52,49,49,41,30,89,68,48,29.91,29.80,29.74,10,10,4,16,8,25,0.00,7,Rain,341
2012-9-19,60,48,35,52,41,32,92,68,48,29.97,29.87,29.68,10,10,5,17,7,30,0.00,6,Rain,174
2012-9-20,61,56,51,54,47,44,88,71,58,29.81,29.73,29.65,10,10,4,23,13,30,0.00,7,Rain,248
2012-9-21,59,52,44,47,43,39,90,69,52,29.81,29.77,29.73,10,10,7,21,9,31,0.00,4,Rain,266
2012-9-22,56,50,45,42,39,37,78,67,52,30.02,29.84,29.71,10,10,10,18,8,31,0.00,5,Rain,314
2012-9-23,54,48,41,40,39,36,83,69,55,30.15,30.09,30.01,10,10,7,16,9,23,0.00,6,Rain,290
2012-9-24,62,54,46,50,40,34,83,56,44,30.11,29.85,29.63,10,10,10,30,15,41,0.00,4,Rain,236
2012-9-25,60,50,39,46,40,32,92,67,35,29.93,29.86,29.79,10,9,0,10,4,,0.00,3,Fog,35
2012-9-26,59,48,38,43,39,34,92,69,46,30.22,30.06,29.93,10,10,7,10,2,,0.00,4,,329
2012-9-27,59,46,34,44,38,32,93,75,47,30.31,30.25,30.20,10,10,3,6,1,,0.00,2,,315
2012-9-28,64,50,36,50,43,34,93,79,52,30.20,30.14,30.08,10,10,3,10,2,,0.00,0,,241
2012-9-29,63,51,39,52,45,37,93,77,48,30.09,30.06,30.03,10,8,0,9,2,,0.00,1,Fog,41
2012-9-30,60,50,39,47,43,36,91,71,41,30.07,30.03,29.97,10,10,7,12,5,16,0.00,2,,72